CPX83 Details

Departure: Auckland International Airport (NZAA)
Arrival: Daniel K Inouye International Airport (PHNL)
Route: TARIB G347 UBRAX OVLAD CUFFY A579 CROBY A579 CHEEM A579 CARRP OPACA4


Current Weather Information
NZAA 190800Z AUTO 03002KT 9999 NCD 18/16 Q1023 NOSIG
PHNL 190753Z 07011G16KT 10SM FEW029 SCT045 23/13 A3009 RMK AO2 SLP189 T02280133